sensor_id;sensor_type;location;lat;lon;timestamp;temperature;humidity
3528;DHT22;1778;47.966;7.854;2023-04-06T00:00:49;1.70;99.90
3528;DHT22;1778;47.966;7.854;2023-04-06T00:01:50;1.60;99.90
3528;DHT22;1778;47.966;7.854;2023-04-06T00:02:52;1.60;99.90
3528;DHT22;1778;47.966;7.854;2023-04-06T00:03:54;1.60;99.90
3528;DHT22;1778;47.966;7.854;2023-04-06T00:04:56;1.60;99.90
3528;DHT22;1778;47.966;7.854;2023-04-06T00:05:57;1.60;99.90
3528;DHT22;1778;47.966;7.854;2023-04-06T00:06:59;1.60;99.90
3528;DHT22;1778;47.966;7.854;2023-04-06T00:08:01;1.60;99.90
3528;DHT22;1778;47.966;7.854;2023-04-06T00:09:02;1.60;99.90
3528;DHT22;1778;47.966;7.854;2023-04-06T00:10:05;1.60;99.90
3528;DHT22;1778;47.966;7.854;2023-04-06T00:11:07;1.60;99.90
3528;DHT22;1778;47.966;7.854;2023-04-06T00:12:09;1.60;99.90
3528;DHT22;1778;47.966;7.854;2023-04-06T00:13:11;1.60;99.90
3528;DHT22;1778;47.966;7.854;2023-04-06T00:14:13;1.60;99.90
3528;DHT22;1778;47.966;7.854;2023-04-06T00:15:15;1.60;99.90
3528;DHT22;1778;47.966;7.854;2023-04-06T00:16:17;1.60;99.90
3528;DHT22;1778;47.966;7.854;2023-04-06T00:17:20;1.60;99.90
3528;DHT22;1778;47.966;7.854;2023-04-06T00:18:22;1.60;99.90
3528;DHT22;1778;47.966;7.854;2023-04-06T00:19:24;1.60;99.90
3528;DHT22;1778;47.966;7.854;2023-04-06T00:20:25;1.50;99.90
3528;DHT22;1778;47.966;7.854;2023-04-06T00:21:27;1.50;99.90
3528;DHT22;1778;47.966;7.854;2023-04-06T00:22:29;1.50;99.90
3528;DHT22;1778;47.966;7.854;2023-04-06T00:23:30;1.50;99.90
3528;DHT22;1778;47.966;7.854;2023-04-06T00:24:32;1.50;99.90
3528;DHT22;1778;47.966;7.854;2023-04-06T00:25:33;1.50;99.90
3528;DHT22;1778;47.966;7.854;2023-04-06T00:26:35;1.50;99.90
3528;DHT22;1778;47.966;7.854;2023-04-06T00:27:38;1.50;99.90
3528;DHT22;1778;47.966;7.854;2023-04-06T00:28:39;1.60;99.90
3528;DHT22;1778;47.966;7.854;2023-04-06T00:29:41;1.50;99.90
3528;DHT22;1778;47.966;7.854;2023-04-06T00:30:42;1.50;99.90
3528;DHT22;1778;47.966;7.854;2023-04-06T00:31:44;1.50;99.90
3528;DHT22;1778;47.966;7.854;2023-04-06T00:32:46;1.50;99.90
3528;DHT22;1778;47.966;7.854;2023-04-06T00:33:48;1.50;99.90
3528;DHT22;1778;47.966;7.854;2023-04-06T00:34:50;1.50;99.90
3528;DHT22;1778;47.966;7.854;2023-04-06T00:35:52;1.50;99.90
3528;DHT22;1778;47.966;7.854;2023-04-06T00:36:53;1.50;99.90
3528;DHT22;1778;47.966;7.854;2023-04-06T00:37:56;1.50;99.90
3528;DHT22;1778;47.966;7.854;2023-04-06T00:38:57;1.40;99.90
3528;DHT22;1778;47.966;7.854;2023-04-06T00:39:59;1.40;99.90
3528;DHT22;1778;47.966;7.854;2023-04-06T00:41:03;1.40;99.90
3528;DHT22;1778;47.966;7.854;2023-04-06T00:42:11;1.40;99.90
3528;DHT22;1778;47.966;7.854;2023-04-06T00:43:16;1.50;99.90
3528;DHT22;1778;47.966;7.854;2023-04-06T00:44:19;1.50;99.90
3528;DHT22;1778;47.966;7.854;2023-04-06T00:45:21;1.50;99.90
3528;DHT22;1778;47.966;7.854;2023-04-06T00:46:23;1.50;99.90
3528;DHT22;1778;47.966;7.854;2023-04-06T00:47:25;1.50;99.90
3528;DHT22;1778;47.966;7.854;2023-04-06T00:48:27;1.40;99.90
3528;DHT22;1778;47.966;7.854;2023-04-06T00:49:29;1.40;99.90
3528;DHT22;1778;47.966;7.854;2023-04-06T00:50:30;1.40;99.90
3528;DHT22;1778;47.966;7.854;2023-04-06T00:51:32;1.40;99.90
3528;DHT22;1778;47.966;7.854;2023-04-06T00:52:34;1.40;99.90
3528;DHT22;1778;47.966;7.854;2023-04-06T00:53:44;1.30;99.90
3528;DHT22;1778;47.966;7.854;2023-04-06T00:54:47;1.40;99.90
3528;DHT22;1778;47.966;7.854;2023-04-06T00:55:49;1.40;99.90
3528;DHT22;1778;47.966;7.854;2023-04-06T00:56:51;1.40;99.90
3528;DHT22;1778;47.966;7.854;2023-04-06T00:57:53;1.30;99.90
3528;DHT22;1778;47.966;7.854;2023-04-06T00:58:55;1.30;99.90
3528;DHT22;1778;47.966;7.854;2023-04-06T00:59:57;1.30;99.90
3528;DHT22;1778;47.966;7.854;2023-04-06T01:00:59;1.30;99.90
3528;DHT22;1778;47.966;7.854;2023-04-06T01:02:00;1.30;99.90
3528;DHT22;1778;47.966;7.854;2023-04-06T01:03:08;1.30;99.90
3528;DHT22;1778;47.966;7.854;2023-04-06T01:04:14;1.30;99.90
3528;DHT22;1778;47.966;7.854;2023-04-06T01:05:16;1.30;99.90
3528;DHT22;1778;47.966;7.854;2023-04-06T01:06:25;1.30;99.90
3528;DHT22;1778;47.966;7.854;2023-04-06T01:07:33;1.30;99.90
3528;DHT22;1778;47.966;7.854;2023-04-06T01:08:49;1.30;99.90
3528;DHT22;1778;47.966;7.854;2023-04-06T01:09:54;1.30;99.90
3528;DHT22;1778;47.966;7.854;2023-04-06T01:11:00;1.30;99.90
3528;DHT22;1778;47.966;7.854;2023-04-06T01:12:03;1.20;99.90
3528;DHT22;1778;47.966;7.854;2023-04-06T01:13:08;1.30;99.90
3528;DHT22;1778;47.966;7.854;2023-04-06T01:14:32;1.30;99.90
3528;DHT22;1778;47.966;7.854;2023-04-06T01:15:35;1.30;99.90
3528;DHT22;1778;47.966;7.854;2023-04-06T01:16:42;1.30;99.90
3528;DHT22;1778;47.966;7.854;2023-04-06T01:17:49;1.30;99.90
3528;DHT22;1778;47.966;7.854;2023-04-06T01:18:51;1.30;99.90
3528;DHT22;1778;47.966;7.854;2023-04-06T01:19:57;1.30;99.90
3528;DHT22;1778;47.966;7.854;2023-04-06T01:21:03;1.30;99.90
3528;DHT22;1778;47.966;7.854;2023-04-06T01:22:05;1.30;99.90
3528;DHT22;1778;47.966;7.854;2023-04-06T01:23:07;1.30;99.90
3528;DHT22;1778;47.966;7.854;2023-04-06T01:24:10;1.30;99.90
3528;DHT22;1778;47.966;7.854;2023-04-06T01:25:27;1.30;99.90
3528;DHT22;1778;47.966;7.854;2023-04-06T01:26:38;1.30;99.90
3528;DHT22;1778;47.966;7.854;2023-04-06T01:27:42;1.20;99.90
3528;DHT22;1778;47.966;7.854;2023-04-06T01:28:47;1.20;99.90
3528;DHT22;1778;47.966;7.854;2023-04-06T01:29:58;1.20;99.90
3528;DHT22;1778;47.966;7.854;2023-04-06T01:31:23;1.20;99.90
3528;DHT22;1778;47.966;7.854;2023-04-06T01:32:26;1.20;99.90
3528;DHT22;1778;47.966;7.854;2023-04-06T01:33:27;1.20;99.90
3528;DHT22;1778;47.966;7.854;2023-04-06T01:34:35;1.10;99.90
3528;DHT22;1778;47.966;7.854;2023-04-06T01:35:39;1.10;99.90
3528;DHT22;1778;47.966;7.854;2023-04-06T01:36:47;1.10;99.90
3528;DHT22;1778;47.966;7.854;2023-04-06T01:38:04;1.10;99.90
3528;DHT22;1778;47.966;7.854;2023-04-06T01:39:09;1.10;99.90
3528;DHT22;1778;47.966;7.854;2023-04-06T01:40:13;1.00;99.90
3528;DHT22;1778;47.966;7.854;2023-04-06T01:41:23;1.00;99.90
3528;DHT22;1778;47.966;7.854;2023-04-06T01:42:26;1.10;99.90
3528;DHT22;1778;47.966;7.854;2023-04-06T01:43:29;1.00;99.90
3528;DHT22;1778;47.966;7.854;2023-04-06T01:44:37;1.00;99.90
3528;DHT22;1778;47.966;7.854;2023-04-06T01:45:44;1.00;99.90
3528;DHT22;1778;47.966;7.854;2023-04-06T01:46:51;1.00;99.90
3528;DHT22;1778;47.966;7.854;2023-04-06T01:47:53;1.10;99.90
3528;DHT22;1778;47.966;7.854;2023-04-06T01:48:58;1.10;99.90
3528;DHT22;1778;47.966;7.854;2023-04-06T01:50:10;1.00;99.90
3528;DHT22;1778;47.966;7.854;2023-04-06T01:51:17;1.00;99.90
3528;DHT22;1778;47.966;7.854;2023-04-06T01:52:25;1.00;99.90
3528;DHT22;1778;47.966;7.854;2023-04-06T01:53:28;1.10;99.90
3528;DHT22;1778;47.966;7.854;2023-04-06T01:54:35;1.00;99.90
3528;DHT22;1778;47.966;7.854;2023-04-06T01:55:57;1.00;99.90
3528;DHT22;1778;47.966;7.854;2023-04-06T01:57:03;1.10;99.90
3528;DHT22;1778;47.966;7.854;2023-04-06T01:58:11;1.00;99.90
3528;DHT22;1778;47.966;7.854;2023-04-06T01:59:13;1.00;99.90
3528;DHT22;1778;47.966;7.854;2023-04-06T02:00:17;0.90;99.90
3528;DHT22;1778;47.966;7.854;2023-04-06T02:01:25;1.00;99.90
3528;DHT22;1778;47.966;7.854;2023-04-06T02:02:30;0.90;99.90
3528;DHT22;1778;47.966;7.854;2023-04-06T02:03:36;0.90;99.90
3528;DHT22;1778;47.966;7.854;2023-04-06T02:04:42;0.90;99.90
3528;DHT22;1778;47.966;7.854;2023-04-06T02:05:47;1.00;99.90
3528;DHT22;1778;47.966;7.854;2023-04-06T02:06:55;1.00;99.90
3528;DHT22;1778;47.966;7.854;2023-04-06T02:07:59;1.00;99.90
3528;DHT22;1778;47.966;7.854;2023-04-06T02:09:06;1.00;99.90
3528;DHT22;1778;47.966;7.854;2023-04-06T02:10:12;1.00;99.90
3528;DHT22;1778;47.966;7.854;2023-04-06T02:11:14;0.90;99.90
3528;DHT22;1778;47.966;7.854;2023-04-06T02:12:20;0.90;99.90
3528;DHT22;1778;47.966;7.854;2023-04-06T02:13:23;0.90;99.90
3528;DHT22;1778;47.966;7.854;2023-04-06T02:14:27;0.90;99.90
3528;DHT22;1778;47.966;7.854;2023-04-06T02:15:32;0.90;99.90
3528;DHT22;1778;47.966;7.854;2023-04-06T02:16:33;0.90;99.90
3528;DHT22;1778;47.966;7.854;2023-04-06T02:17:35;0.90;99.90
3528;DHT22;1778;47.966;7.854;2023-04-06T02:18:36;0.90;99.90
3528;DHT22;1778;47.966;7.854;2023-04-06T02:19:38;0.90;99.90
3528;DHT22;1778;47.966;7.854;2023-04-06T02:20:39;0.90;99.90
3528;DHT22;1778;47.966;7.854;2023-04-06T02:21:42;1.00;99.90
3528;DHT22;1778;47.966;7.854;2023-04-06T02:22:44;1.00;99.90
3528;DHT22;1778;47.966;7.854;2023-04-06T02:23:48;0.90;99.90
3528;DHT22;1778;47.966;7.854;2023-04-06T02:24:51;1.00;99.90
3528;DHT22;1778;47.966;7.854;2023-04-06T02:25:53;0.90;99.90
3528;DHT22;1778;47.966;7.854;2023-04-06T02:26:54;0.90;99.90
3528;DHT22;1778;47.966;7.854;2023-04-06T02:27:56;0.90;99.90
3528;DHT22;1778;47.966;7.854;2023-04-06T02:28:58;0.90;99.90
3528;DHT22;1778;47.966;7.854;2023-04-06T02:30:00;1.00;99.90
3528;DHT22;1778;47.966;7.854;2023-04-06T02:31:02;1.00;99.90
3528;DHT22;1778;47.966;7.854;2023-04-06T02:32:03;1.00;99.90
3528;DHT22;1778;47.966;7.854;2023-04-06T02:33:06;1.00;99.90
3528;DHT22;1778;47.966;7.854;2023-04-06T02:34:16;1.00;99.90
3528;DHT22;1778;47.966;7.854;2023-04-06T02:35:24;1.00;99.90
3528;DHT22;1778;47.966;7.854;2023-04-06T02:36:28;1.00;99.90
3528;DHT22;1778;47.966;7.854;2023-04-06T02:37:31;1.00;99.90
3528;DHT22;1778;47.966;7.854;2023-04-06T02:38:33;1.00;99.90
3528;DHT22;1778;47.966;7.854;2023-04-06T02:39:36;1.00;99.90
3528;DHT22;1778;47.966;7.854;2023-04-06T02:40:41;1.00;99.90
3528;DHT22;1778;47.966;7.854;2023-04-06T02:41:54;1.00;99.90
3528;DHT22;1778;47.966;7.854;2023-04-06T02:42:58;0.90;99.90
3528;DHT22;1778;47.966;7.854;2023-04-06T02:44:07;0.90;99.90
3528;DHT22;1778;47.966;7.854;2023-04-06T02:45:16;1.00;99.90
3528;DHT22;1778;47.966;7.854;2023-04-06T02:46:20;0.90;99.90
3528;DHT22;1778;47.966;7.854;2023-04-06T02:47:22;0.90;99.90
3528;DHT22;1778;47.966;7.854;2023-04-06T02:48:25;0.90;99.90
3528;DHT22;1778;47.966;7.854;2023-04-06T02:49:27;0.80;99.90
3528;DHT22;1778;47.966;7.854;2023-04-06T02:50:30;0.80;99.90
3528;DHT22;1778;47.966;7.854;2023-04-06T02:51:36;0.90;99.90
3528;DHT22;1778;47.966;7.854;2023-04-06T02:52:59;0.80;99.90
3528;DHT22;1778;47.966;7.854;2023-04-06T02:54:02;0.80;99.90
3528;DHT22;1778;47.966;7.854;2023-04-06T02:55:04;0.80;99.90
3528;DHT22;1778;47.966;7.854;2023-04-06T02:56:06;0.80;99.90
3528;DHT22;1778;47.966;7.854;2023-04-06T02:57:21;0.80;99.90
3528;DHT22;1778;47.966;7.854;2023-04-06T02:58:23;0.80;99.90
3528;DHT22;1778;47.966;7.854;2023-04-06T02:59:28;0.80;99.90
3528;DHT22;1778;47.966;7.854;2023-04-06T03:00:41;0.70;99.90
3528;DHT22;1778;47.966;7.854;2023-04-06T03:01:43;0.70;99.90
3528;DHT22;1778;47.966;7.854;2023-04-06T03:02:44;0.70;99.90
3528;DHT22;1778;47.966;7.854;2023-04-06T03:03:49;0.60;99.90
3528;DHT22;1778;47.966;7.854;2023-04-06T03:04:57;0.60;99.90
3528;DHT22;1778;47.966;7.854;2023-04-06T03:06:04;0.60;99.90
3528;DHT22;1778;47.966;7.854;2023-04-06T03:07:06;0.70;99.90
3528;DHT22;1778;47.966;7.854;2023-04-06T03:08:11;0.70;99.90
3528;DHT22;1778;47.966;7.854;2023-04-06T03:09:16;0.70;99.90
3528;DHT22;1778;47.966;7.854;2023-04-06T03:10:19;0.70;99.90
3528;DHT22;1778;47.966;7.854;2023-04-06T03:11:22;0.70;99.90
3528;DHT22;1778;47.966;7.854;2023-04-06T03:12:25;0.60;99.90
3528;DHT22;1778;47.966;7.854;2023-04-06T03:13:56;0.70;99.90
3528;DHT22;1778;47.966;7.854;2023-04-06T03:14:57;0.60;99.90
3528;DHT22;1778;47.966;7.854;2023-04-06T03:16:00;0.70;99.90
3528;DHT22;1778;47.966;7.854;2023-04-06T03:17:01;0.60;99.90
3528;DHT22;1778;47.966;7.854;2023-04-06T03:18:03;0.60;99.90
3528;DHT22;1778;47.966;7.854;2023-04-06T03:19:16;0.60;99.90
3528;DHT22;1778;47.966;7.854;2023-04-06T03:20:17;0.60;99.90
3528;DHT22;1778;47.966;7.854;2023-04-06T03:21:20;0.60;99.90
3528;DHT22;1778;47.966;7.854;2023-04-06T03:22:24;0.50;99.90
3528;DHT22;1778;47.966;7.854;2023-04-06T03:23:26;0.50;99.90
3528;DHT22;1778;47.966;7.854;2023-04-06T03:24:31;0.60;99.90
3528;DHT22;1778;47.966;7.854;2023-04-06T03:25:33;0.60;99.90
3528;DHT22;1778;47.966;7.854;2023-04-06T03:26:38;0.60;99.90
3528;DHT22;1778;47.966;7.854;2023-04-06T03:27:41;0.60;99.90
3528;DHT22;1778;47.966;7.854;2023-04-06T03:28:46;0.70;99.90
3528;DHT22;1778;47.966;7.854;2023-04-06T03:29:49;0.60;99.90
3528;DHT22;1778;47.966;7.854;2023-04-06T03:30:57;0.60;99.90
3528;DHT22;1778;47.966;7.854;2023-04-06T03:32:19;0.60;99.90
3528;DHT22;1778;47.966;7.854;2023-04-06T03:33:21;0.60;99.90
3528;DHT22;1778;47.966;7.854;2023-04-06T03:34:27;0.60;99.90
3528;DHT22;1778;47.966;7.854;2023-04-06T03:35:29;0.60;99.90
3528;DHT22;1778;47.966;7.854;2023-04-06T03:36:31;0.60;99.90
3528;DHT22;1778;47.966;7.854;2023-04-06T03:37:33;0.60;99.90
3528;DHT22;1778;47.966;7.854;2023-04-06T03:38:37;0.50;99.90
3528;DHT22;1778;47.966;7.854;2023-04-06T03:39:45;0.60;99.90
3528;DHT22;1778;47.966;7.854;2023-04-06T03:40:51;0.60;99.90
3528;DHT22;1778;47.966;7.854;2023-04-06T03:41:57;0.50;99.90
3528;DHT22;1778;47.966;7.854;2023-04-06T03:43:10;0.60;99.90
3528;DHT22;1778;47.966;7.854;2023-04-06T03:44:12;0.60;99.90
3528;DHT22;1778;47.966;7.854;2023-04-06T03:45:13;0.50;99.90
3528;DHT22;1778;47.966;7.854;2023-04-06T03:46:21;0.60;99.90
3528;DHT22;1778;47.966;7.854;2023-04-06T03:47:26;0.60;99.90
3528;DHT22;1778;47.966;7.854;2023-04-06T03:48:31;0.50;99.90
3528;DHT22;1778;47.966;7.854;2023-04-06T03:49:38;0.60;99.90
3528;DHT22;1778;47.966;7.854;2023-04-06T03:50:43;0.60;99.90
3528;DHT22;1778;47.966;7.854;2023-04-06T03:51:44;0.60;99.90
3528;DHT22;1778;47.966;7.854;2023-04-06T03:52:46;0.60;99.90
3528;DHT22;1778;47.966;7.854;2023-04-06T03:53:47;0.60;99.90
3528;DHT22;1778;47.966;7.854;2023-04-06T03:54:49;0.60;99.90
3528;DHT22;1778;47.966;7.854;2023-04-06T03:55:51;0.60;99.90
3528;DHT22;1778;47.966;7.854;2023-04-06T03:56:52;0.50;99.90
3528;DHT22;1778;47.966;7.854;2023-04-06T03:57:54;0.50;99.90
3528;DHT22;1778;47.966;7.854;2023-04-06T03:58:56;0.50;99.90
3528;DHT22;1778;47.966;7.854;2023-04-06T03:59:58;0.50;99.90
3528;DHT22;1778;47.966;7.854;2023-04-06T04:01:00;0.40;99.90
3528;DHT22;1778;47.966;7.854;2023-04-06T04:02:02;0.40;99.90
3528;DHT22;1778;47.966;7.854;2023-04-06T04:03:03;0.40;99.90
3528;DHT22;1778;47.966;7.854;2023-04-06T04:04:05;0.40;99.90
3528;DHT22;1778;47.966;7.854;2023-04-06T04:05:07;0.40;99.90
3528;DHT22;1778;47.966;7.854;2023-04-06T04:06:10;0.50;99.90
3528;DHT22;1778;47.966;7.854;2023-04-06T04:07:15;0.40;99.90
3528;DHT22;1778;47.966;7.854;2023-04-06T04:08:17;0.50;99.90
3528;DHT22;1778;47.966;7.854;2023-04-06T04:09:18;0.40;99.90
3528;DHT22;1778;47.966;7.854;2023-04-06T04:10:20;0.50;99.90
3528;DHT22;1778;47.966;7.854;2023-04-06T04:11:22;0.50;99.90
3528;DHT22;1778;47.966;7.854;2023-04-06T04:12:30;0.50;99.90
3528;DHT22;1778;47.966;7.854;2023-04-06T04:13:32;0.50;99.90
3528;DHT22;1778;47.966;7.854;2023-04-06T04:14:37;0.50;99.90
3528;DHT22;1778;47.966;7.854;2023-04-06T04:15:39;0.50;99.90
3528;DHT22;1778;47.966;7.854;2023-04-06T04:16:41;0.50;99.90
3528;DHT22;1778;47.966;7.854;2023-04-06T04:17:43;0.50;99.90
3528;DHT22;1778;47.966;7.854;2023-04-06T04:18:48;0.50;99.90
3528;DHT22;1778;47.966;7.854;2023-04-06T04:19:50;0.50;99.90
3528;DHT22;1778;47.966;7.854;2023-04-06T04:20:52;0.40;99.90
3528;DHT22;1778;47.966;7.854;2023-04-06T04:21:56;0.40;99.90
3528;DHT22;1778;47.966;7.854;2023-04-06T04:23:05;0.40;99.90
3528;DHT22;1778;47.966;7.854;2023-04-06T04:24:08;0.40;99.90
3528;DHT22;1778;47.966;7.854;2023-04-06T04:25:10;0.50;99.90
3528;DHT22;1778;47.966;7.854;2023-04-06T04:26:18;0.40;99.90
3528;DHT22;1778;47.966;7.854;2023-04-06T04:27:20;0.40;99.90
3528;DHT22;1778;47.966;7.854;2023-04-06T04:28:24;0.40;99.90
3528;DHT22;1778;47.966;7.854;2023-04-06T04:29:28;0.50;99.90
3528;DHT22;1778;47.966;7.854;2023-04-06T04:30:35;0.50;99.90
3528;DHT22;1778;47.966;7.854;2023-04-06T04:31:41;0.40;99.90
3528;DHT22;1778;47.966;7.854;2023-04-06T04:32:49;0.40;99.90
3528;DHT22;1778;47.966;7.854;2023-04-06T04:33:53;0.50;99.90
3528;DHT22;1778;47.966;7.854;2023-04-06T04:35:01;0.40;99.90
3528;DHT22;1778;47.966;7.854;2023-04-06T04:36:11;0.40;99.90
3528;DHT22;1778;47.966;7.854;2023-04-06T04:37:16;0.40;99.90
3528;DHT22;1778;47.966;7.854;2023-04-06T04:38:27;0.40;99.90
3528;DHT22;1778;47.966;7.854;2023-04-06T04:39:30;0.30;99.90
3528;DHT22;1778;47.966;7.854;2023-04-06T04:40:37;0.30;99.90
3528;DHT22;1778;47.966;7.854;2023-04-06T04:41:43;0.30;99.90
3528;DHT22;1778;47.966;7.854;2023-04-06T04:42:46;0.30;99.90
3528;DHT22;1778;47.966;7.854;2023-04-06T04:43:54;0.30;99.90
3528;DHT22;1778;47.966;7.854;2023-04-06T04:44:59;0.30;99.90
3528;DHT22;1778;47.966;7.854;2023-04-06T04:46:11;0.30;99.90
3528;DHT22;1778;47.966;7.854;2023-04-06T04:47:16;0.30;99.90
3528;DHT22;1778;47.966;7.854;2023-04-06T04:48:20;0.30;99.90
3528;DHT22;1778;47.966;7.854;2023-04-06T04:49:27;0.30;99.90
3528;DHT22;1778;47.966;7.854;2023-04-06T04:50:29;0.30;99.90
3528;DHT22;1778;47.966;7.854;2023-04-06T04:51:32;0.30;99.90
3528;DHT22;1778;47.966;7.854;2023-04-06T04:52:42;0.40;99.90
3528;DHT22;1778;47.966;7.854;2023-04-06T04:53:56;0.40;99.90
3528;DHT22;1778;47.966;7.854;2023-04-06T04:55:01;0.40;99.90
3528;DHT22;1778;47.966;7.854;2023-04-06T04:56:04;0.30;99.90
3528;DHT22;1778;47.966;7.854;2023-04-06T04:57:06;0.30;99.90
3528;DHT22;1778;47.966;7.854;2023-04-06T04:58:15;0.30;99.90
3528;DHT22;1778;47.966;7.854;2023-04-06T04:59:29;0.30;99.90
3528;DHT22;1778;47.966;7.854;2023-04-06T05:00:42;0.30;99.90
3528;DHT22;1778;47.966;7.854;2023-04-06T05:01:44;0.30;99.90
3528;DHT22;1778;47.966;7.854;2023-04-06T05:03:02;0.30;99.90
3528;DHT22;1778;47.966;7.854;2023-04-06T05:04:09;0.30;99.90
3528;DHT22;1778;47.966;7.854;2023-04-06T05:05:12;0.30;99.90
3528;DHT22;1778;47.966;7.854;2023-04-06T05:06:15;0.30;99.90
3528;DHT22;1778;47.966;7.854;2023-04-06T05:07:17;0.40;99.90
3528;DHT22;1778;47.966;7.854;2023-04-06T05:08:20;0.40;99.90
3528;DHT22;1778;47.966;7.854;2023-04-06T05:09:22;0.30;99.90
3528;DHT22;1778;47.966;7.854;2023-04-06T05:10:24;0.40;99.90
3528;DHT22;1778;47.966;7.854;2023-04-06T05:11:33;0.40;99.90
3528;DHT22;1778;47.966;7.854;2023-04-06T05:12:35;0.40;99.90
3528;DHT22;1778;47.966;7.854;2023-04-06T05:13:40;0.40;99.90
3528;DHT22;1778;47.966;7.854;2023-04-06T05:14:48;0.40;99.90
3528;DHT22;1778;47.966;7.854;2023-04-06T05:15:52;0.50;99.90
3528;DHT22;1778;47.966;7.854;2023-04-06T05:17:00;0.40;99.90
3528;DHT22;1778;47.966;7.854;2023-04-06T05:18:03;0.40;99.90
3528;DHT22;1778;47.966;7.854;2023-04-06T05:19:07;0.40;99.90
3528;DHT22;1778;47.966;7.854;2023-04-06T05:20:15;0.50;99.90
3528;DHT22;1778;47.966;7.854;2023-04-06T05:21:22;0.40;99.90
3528;DHT22;1778;47.966;7.854;2023-04-06T05:22:34;0.40;99.90
3528;DHT22;1778;47.966;7.854;2023-04-06T05:23:40;0.50;99.90
3528;DHT22;1778;47.966;7.854;2023-04-06T05:24:42;0.40;99.90
3528;DHT22;1778;47.966;7.854;2023-04-06T05:25:44;0.40;99.90
3528;DHT22;1778;47.966;7.854;2023-04-06T05:26:53;0.40;99.90
3528;DHT22;1778;47.966;7.854;2023-04-06T05:27:57;0.40;99.90
3528;DHT22;1778;47.966;7.854;2023-04-06T05:29:08;0.40;99.90
3528;DHT22;1778;47.966;7.854;2023-04-06T05:30:12;0.40;99.90
3528;DHT22;1778;47.966;7.854;2023-04-06T05:31:18;0.40;99.90
3528;DHT22;1778;47.966;7.854;2023-04-06T05:32:23;0.50;99.90
3528;DHT22;1778;47.966;7.854;2023-04-06T05:33:26;0.50;99.90
3528;DHT22;1778;47.966;7.854;2023-04-06T05:34:37;0.50;99.90
3528;DHT22;1778;47.966;7.854;2023-04-06T05:35:38;0.60;99.90
3528;DHT22;1778;47.966;7.854;2023-04-06T05:36:44;0.60;99.90
3528;DHT22;1778;47.966;7.854;2023-04-06T05:37:52;0.60;99.90
3528;DHT22;1778;47.966;7.854;2023-04-06T05:38:58;0.60;99.90
3528;DHT22;1778;47.966;7.854;2023-04-06T05:40:21;0.60;99.90
3528;DHT22;1778;47.966;7.854;2023-04-06T05:41:24;0.60;99.90
3528;DHT22;1778;47.966;7.854;2023-04-06T05:42:25;0.60;99.90
3528;DHT22;1778;47.966;7.854;2023-04-06T05:43:31;0.60;99.90
3528;DHT22;1778;47.966;7.854;2023-04-06T05:44:34;0.60;99.90
3528;DHT22;1778;47.966;7.854;2023-04-06T05:45:45;0.60;99.90
3528;DHT22;1778;47.966;7.854;2023-04-06T05:46:47;0.60;99.90
3528;DHT22;1778;47.966;7.854;2023-04-06T05:47:50;0.70;99.90
3528;DHT22;1778;47.966;7.854;2023-04-06T05:48:59;0.60;99.90
3528;DHT22;1778;47.966;7.854;2023-04-06T05:50:04;0.60;99.90
3528;DHT22;1778;47.966;7.854;2023-04-06T05:51:09;0.70;99.90
3528;DHT22;1778;47.966;7.854;2023-04-06T05:52:22;0.70;99.90
3528;DHT22;1778;47.966;7.854;2023-04-06T05:53:24;0.70;99.90
3528;DHT22;1778;47.966;7.854;2023-04-06T05:54:30;0.70;99.90
3528;DHT22;1778;47.966;7.854;2023-04-06T05:55:35;0.70;99.90
3528;DHT22;1778;47.966;7.854;2023-04-06T05:56:52;0.70;99.90
3528;DHT22;1778;47.966;7.854;2023-04-06T05:57:54;0.70;99.90
3528;DHT22;1778;47.966;7.854;2023-04-06T05:58:56;0.80;99.90
3528;DHT22;1778;47.966;7.854;2023-04-06T06:00:01;0.90;99.90
3528;DHT22;1778;47.966;7.854;2023-04-06T06:01:18;0.90;99.90
3528;DHT22;1778;47.966;7.854;2023-04-06T06:02:21;0.90;99.90
3528;DHT22;1778;47.966;7.854;2023-04-06T06:03:25;0.90;99.90
3528;DHT22;1778;47.966;7.854;2023-04-06T06:04:30;0.90;99.90
3528;DHT22;1778;47.966;7.854;2023-04-06T06:05:32;0.90;99.90
3528;DHT22;1778;47.966;7.854;2023-04-06T06:06:41;0.90;99.90
3528;DHT22;1778;47.966;7.854;2023-04-06T06:07:49;0.90;99.90
3528;DHT22;1778;47.966;7.854;2023-04-06T06:08:51;1.00;99.90
3528;DHT22;1778;47.966;7.854;2023-04-06T06:09:57;1.00;99.90
3528;DHT22;1778;47.966;7.854;2023-04-06T06:11:04;1.00;99.90
3528;DHT22;1778;47.966;7.854;2023-04-06T06:12:06;1.00;99.90
3528;DHT22;1778;47.966;7.854;2023-04-06T06:13:08;1.00;99.90
3528;DHT22;1778;47.966;7.854;2023-04-06T06:14:11;1.10;99.90
3528;DHT22;1778;47.966;7.854;2023-04-06T06:15:14;1.10;99.90
3528;DHT22;1778;47.966;7.854;2023-04-06T06:16:19;1.10;99.90
3528;DHT22;1778;47.966;7.854;2023-04-06T06:17:22;1.20;99.90
3528;DHT22;1778;47.966;7.854;2023-04-06T06:18:24;1.20;99.90
3528;DHT22;1778;47.966;7.854;2023-04-06T06:19:28;1.30;99.90
3528;DHT22;1778;47.966;7.854;2023-04-06T06:20:33;1.20;99.90
3528;DHT22;1778;47.966;7.854;2023-04-06T06:21:38;1.30;99.90
3528;DHT22;1778;47.966;7.854;2023-04-06T06:22:40;1.30;99.90
3528;DHT22;1778;47.966;7.854;2023-04-06T06:23:47;1.40;99.90
3528;DHT22;1778;47.966;7.854;2023-04-06T06:24:53;1.50;99.90
3528;DHT22;1778;47.966;7.854;2023-04-06T06:25:55;1.50;99.90
3528;DHT22;1778;47.966;7.854;2023-04-06T06:27:00;1.50;99.90
3528;DHT22;1778;47.966;7.854;2023-04-06T06:28:05;1.60;99.90
3528;DHT22;1778;47.966;7.854;2023-04-06T06:29:07;1.70;99.90
3528;DHT22;1778;47.966;7.854;2023-04-06T06:30:12;1.70;99.90
3528;DHT22;1778;47.966;7.854;2023-04-06T06:31:15;1.70;99.90
3528;DHT22;1778;47.966;7.854;2023-04-06T06:32:18;1.70;99.90
3528;DHT22;1778;47.966;7.854;2023-04-06T06:33:23;1.70;99.90
3528;DHT22;1778;47.966;7.854;2023-04-06T06:34:27;1.80;99.90
3528;DHT22;1778;47.966;7.854;2023-04-06T06:35:31;1.90;99.90
3528;DHT22;1778;47.966;7.854;2023-04-06T06:36:36;2.00;99.90
3528;DHT22;1778;47.966;7.854;2023-04-06T06:37:41;2.00;99.90
3528;DHT22;1778;47.966;7.854;2023-04-06T06:38:46;2.10;99.90
3528;DHT22;1778;47.966;7.854;2023-04-06T06:39:51;2.20;99.90
3528;DHT22;1778;47.966;7.854;2023-04-06T06:40:54;2.20;99.90
3528;DHT22;1778;47.966;7.854;2023-04-06T06:41:59;2.30;99.90
3528;DHT22;1778;47.966;7.854;2023-04-06T06:43:34;2.40;99.90
3528;DHT22;1778;47.966;7.854;2023-04-06T06:44:40;2.40;99.90
3528;DHT22;1778;47.966;7.854;2023-04-06T06:45:42;2.40;99.90
3528;DHT22;1778;47.966;7.854;2023-04-06T06:46:44;2.40;99.90
3528;DHT22;1778;47.966;7.854;2023-04-06T06:47:46;2.40;99.90
3528;DHT22;1778;47.966;7.854;2023-04-06T06:48:48;2.40;99.90
3528;DHT22;1778;47.966;7.854;2023-04-06T06:49:50;2.50;99.90
3528;DHT22;1778;47.966;7.854;2023-04-06T06:50:52;2.50;99.90
3528;DHT22;1778;47.966;7.854;2023-04-06T06:51:54;2.60;99.90
3528;DHT22;1778;47.966;7.854;2023-04-06T06:52:56;2.60;99.90
3528;DHT22;1778;47.966;7.854;2023-04-06T06:53:58;2.60;99.90
3528;DHT22;1778;47.966;7.854;2023-04-06T06:54:59;2.70;99.90
3528;DHT22;1778;47.966;7.854;2023-04-06T06:56:02;2.80;99.90
3528;DHT22;1778;47.966;7.854;2023-04-06T06:57:04;2.80;99.90
3528;DHT22;1778;47.966;7.854;2023-04-06T06:58:06;2.90;99.90
3528;DHT22;1778;47.966;7.854;2023-04-06T06:59:08;2.90;99.90
3528;DHT22;1778;47.966;7.854;2023-04-06T07:00:10;3.00;99.90
3528;DHT22;1778;47.966;7.854;2023-04-06T07:01:16;3.00;99.90
3528;DHT22;1778;47.966;7.854;2023-04-06T07:02:17;3.10;99.90
3528;DHT22;1778;47.966;7.854;2023-04-06T07:03:20;3.20;99.90
3528;DHT22;1778;47.966;7.854;2023-04-06T07:04:22;3.30;99.90
3528;DHT22;1778;47.966;7.854;2023-04-06T07:05:24;3.40;99.90
3528;DHT22;1778;47.966;7.854;2023-04-06T07:06:31;3.40;99.90
3528;DHT22;1778;47.966;7.854;2023-04-06T07:07:33;3.50;99.90
3528;DHT22;1778;47.966;7.854;2023-04-06T07:08:35;3.50;99.90
3528;DHT22;1778;47.966;7.854;2023-04-06T07:09:37;3.60;99.90